createdAt,value
2018-03-01T00:02:38.000Z,11.4
2018-03-01T00:12:37.000Z,11.1
2018-03-01T00:22:37.000Z,10.8
2018-03-01T00:32:37.000Z,10.5
2018-03-01T00:42:38.000Z,10.4
2018-03-01T00:52:37.000Z,10.3
2018-03-01T01:02:37.000Z,10.1
2018-03-01T01:12:37.000Z,10
2018-03-01T01:22:37.000Z,9.7
2018-03-01T01:32:37.000Z,9.7
2018-03-01T01:42:37.000Z,9.6
2018-03-01T01:52:37.000Z,9.7
2018-03-01T02:02:37.000Z,9.6
2018-03-01T02:12:37.000Z,9.3
2018-03-01T02:22:37.000Z,9.2
2018-03-01T02:32:37.000Z,9.3
2018-03-01T02:42:37.000Z,9.4
2018-03-01T02:52:37.000Z,9.1
2018-03-01T03:02:37.000Z,9.1
2018-03-01T03:12:37.000Z,9.1
2018-03-01T03:22:37.000Z,8.9
2018-03-01T03:32:37.000Z,8.9
2018-03-01T03:42:40.000Z,8.7
2018-03-01T03:52:37.000Z,8.7
2018-03-01T04:02:38.000Z,8.9
2018-03-01T04:12:38.000Z,8.6
2018-03-01T04:22:38.000Z,8.6
2018-03-01T04:32:38.000Z,8.5
2018-03-01T04:42:38.000Z,8.6
2018-03-01T04:52:38.000Z,8.4
2018-03-01T05:02:38.000Z,8.5
2018-03-01T05:12:38.000Z,8.4
2018-03-01T05:22:38.000Z,8.4
2018-03-01T05:32:38.000Z,8.1
2018-03-01T05:42:38.000Z,8.3
2018-03-01T05:52:38.000Z,8.3
2018-03-01T06:02:38.000Z,8.3
2018-03-01T06:12:38.000Z,8.1
2018-03-01T06:22:38.000Z,8.2
2018-03-01T06:32:38.000Z,8.1
2018-03-01T06:42:38.000Z,7.9
2018-03-01T06:52:38.000Z,8
2018-03-01T07:02:38.000Z,8.1
2018-03-01T07:12:38.000Z,8.2
2018-03-01T07:22:38.000Z,8.7
2018-03-01T07:32:38.000Z,11
2018-03-01T07:42:38.000Z,12.3
2018-03-01T07:52:38.000Z,12.9
2018-03-01T08:02:38.000Z,13.7
2018-03-01T08:12:38.000Z,14.2
2018-03-01T08:22:38.000Z,14.5
2018-03-01T08:32:38.000Z,14.8
2018-03-01T08:42:38.000Z,15.2
2018-03-01T08:52:38.000Z,15.3
2018-03-01T09:02:38.000Z,15.4
2018-03-01T09:12:38.000Z,15.7
2018-03-01T09:22:38.000Z,15.8
2018-03-01T09:32:38.000Z,15.8
2018-03-01T09:42:38.000Z,16
2018-03-01T09:52:38.000Z,16
2018-03-01T10:02:38.000Z,16.1
2018-03-01T10:12:38.000Z,16.1
2018-03-01T10:22:38.000Z,16.1
2018-03-01T10:32:38.000Z,16.2
2018-03-01T10:42:38.000Z,16.3
2018-03-01T10:52:40.000Z,16.2
2018-03-01T11:02:38.000Z,16.5
2018-03-01T11:12:38.000Z,16.4
2018-03-01T11:22:38.000Z,16.5
2018-03-01T11:32:38.000Z,16.7
2018-03-01T11:42:39.000Z,16.6
2018-03-01T11:52:39.000Z,16.6
2018-03-01T12:02:39.000Z,16.7
2018-03-01T12:12:39.000Z,16.8
2018-03-01T12:22:39.000Z,16.7
2018-03-01T12:32:39.000Z,16.9
2018-03-01T12:42:39.000Z,16.8
2018-03-01T12:52:39.000Z,16.8
2018-03-01T13:02:39.000Z,17
2018-03-01T13:12:39.000Z,16.9
2018-03-01T13:22:39.000Z,17
2018-03-01T13:32:39.000Z,17
2018-03-01T13:42:39.000Z,16.8
2018-03-01T13:52:39.000Z,17
2018-03-01T14:02:39.000Z,17
2018-03-01T14:12:39.000Z,17.1
2018-03-01T14:22:39.000Z,17
2018-03-01T14:32:39.000Z,17.2
2018-03-01T14:42:39.000Z,17.2
2018-03-01T14:52:39.000Z,17.3
2018-03-01T15:02:39.000Z,17.2
2018-03-01T15:12:39.000Z,17.4
2018-03-01T15:22:39.000Z,17.3
2018-03-01T15:32:42.000Z,17.3
2018-03-01T15:42:39.000Z,17.2
2018-03-01T15:52:39.000Z,17.3
2018-03-01T16:02:39.000Z,17.3
2018-03-01T16:12:39.000Z,17.3
2018-03-01T16:22:39.000Z,17.4
2018-03-01T16:32:39.000Z,17.4
2018-03-01T16:42:39.000Z,17.4
2018-03-01T16:52:39.000Z,17.6
2018-03-01T17:02:39.000Z,17.4
2018-03-01T17:12:39.000Z,17.5
2018-03-01T17:22:39.000Z,17.2
2018-03-01T17:32:39.000Z,17.4
2018-03-01T17:42:39.000Z,17.4
2018-03-01T17:52:39.000Z,17.4
2018-03-01T18:02:39.000Z,17.5
2018-03-01T18:12:39.000Z,17.3
2018-03-01T18:22:40.000Z,17.5
2018-03-01T18:32:39.000Z,17.3
2018-03-01T18:42:40.000Z,17.1
2018-03-01T18:52:40.000Z,17.3
2018-03-01T19:02:41.000Z,17.3
2018-03-01T19:12:40.000Z,17.4
2018-03-01T19:22:40.000Z,17.4
2018-03-01T19:32:40.000Z,17.4
2018-03-01T19:42:42.000Z,17.4
2018-03-01T19:52:40.000Z,17.4
2018-03-01T20:02:40.000Z,17.4
2018-03-01T20:12:40.000Z,17.4
2018-03-01T20:22:40.000Z,17.4
2018-03-01T20:32:40.000Z,17.4
2018-03-01T20:42:40.000Z,17.5
2018-03-01T20:52:40.000Z,17.3
2018-03-01T21:22:40.000Z,17.5
2018-03-01T21:32:42.000Z,17.5
2018-03-01T21:42:40.000Z,17.5
2018-03-01T21:52:40.000Z,17.5
2018-03-01T22:02:40.000Z,17.5
2018-03-01T22:12:40.000Z,17.5
2018-03-01T22:22:40.000Z,17.5
2018-03-01T22:32:40.000Z,17.7
2018-03-01T22:42:41.000Z,17.6
2018-03-01T22:52:40.000Z,17.6
2018-03-01T23:02:40.000Z,17.6
2018-03-01T23:12:40.000Z,17.5
2018-03-01T23:22:40.000Z,17.3
2018-03-01T23:42:40.000Z,17.5
2018-03-01T23:52:40.000Z,17.1
